createdAt,value
2022-09-13T16:07:12.866Z,25.87
2022-09-13T16:09:41.736Z,25.14
2022-09-13T16:12:09.507Z,25.06
2022-09-13T16:14:37.428Z,24.62
2022-09-13T16:17:07.985Z,24.03
2022-09-13T16:19:35.902Z,24.16
2022-09-13T16:22:03.500Z,24.02
2022-09-13T16:24:32.418Z,24.03
2022-09-13T16:27:00.755Z,23.97
2022-09-13T16:29:28.382Z,23.60
2022-09-13T16:31:57.548Z,23.49
2022-09-13T16:34:25.116Z,23.44
2022-09-13T16:36:52.898Z,23.21
2022-09-13T16:39:20.838Z,23.08
2022-09-13T16:41:49.723Z,23.02
2022-09-13T16:44:17.823Z,22.68
2022-09-13T16:46:45.940Z,22.71
2022-09-13T16:49:13.803Z,22.76
2022-09-13T16:51:41.324Z,22.64
2022-09-13T16:54:08.962Z,22.59
2022-09-13T16:56:36.470Z,22.58
2022-09-13T16:59:05.355Z,22.73
2022-09-13T17:01:33.006Z,22.73
2022-09-13T17:04:00.656Z,22.58
2022-09-13T17:06:28.580Z,22.28
2022-09-13T17:08:57.641Z,22.45
2022-09-13T17:11:27.640Z,22.46
2022-09-13T17:13:56.053Z,22.33
2022-09-13T17:16:28.012Z,22.10
2022-09-13T17:18:57.145Z,22.00
2022-09-13T17:21:25.270Z,21.97
2022-09-13T17:23:53.287Z,21.87
2022-09-13T17:26:21.262Z,21.78
2022-09-13T17:28:48.949Z,20.55
2022-09-13T17:31:17.694Z,20.52
2022-09-13T17:33:46.858Z,19.90
2022-09-13T17:36:18.667Z,19.85
2022-09-13T17:38:46.398Z,19.49
2022-09-13T17:41:15.250Z,19.75
2022-09-13T17:43:43.655Z,19.88
2022-09-13T17:46:12.807Z,19.92
2022-09-13T17:48:40.939Z,19.80
2022-09-13T17:51:12.723Z,19.73
2022-09-13T17:53:41.635Z,19.42
2022-09-13T17:56:09.338Z,19.44
2022-09-13T17:58:37.314Z,19.18
2022-09-13T18:01:06.483Z,19.48
2022-09-13T18:03:34.990Z,19.43
2022-09-13T18:06:03.119Z,19.47
2022-09-13T18:08:34.414Z,19.33
2022-09-13T18:11:13.332Z,19.32
2022-09-13T18:13:43.273Z,19.26
2022-09-13T18:16:15.093Z,18.92
2022-09-13T18:18:46.150Z,18.95
2022-09-13T18:21:16.667Z,18.93
2022-09-13T18:23:46.808Z,18.72
2022-09-13T18:26:15.850Z,18.81
2022-09-13T18:28:44.166Z,18.57
2022-09-13T18:31:14.120Z,18.78
2022-09-13T18:33:41.795Z,18.86
2022-09-13T18:36:12.267Z,18.92
2022-09-13T18:38:41.692Z,18.62
2022-09-13T18:41:16.810Z,18.64
2022-09-13T18:43:45.966Z,18.55
2022-09-13T18:46:15.305Z,18.82
2022-09-13T18:48:44.471Z,18.18
2022-09-13T18:51:14.157Z,18.15
2022-09-13T18:53:41.954Z,18.48
2022-09-13T18:56:12.540Z,18.29
2022-09-13T18:58:41.430Z,18.30
2022-09-13T19:01:11.231Z,18.49
2022-09-13T19:03:40.281Z,18.51
2022-09-13T19:06:12.816Z,18.43
2022-09-13T19:08:40.402Z,17.95
2022-09-13T19:11:23.798Z,18.36
2022-09-13T19:13:57.980Z,18.31
2022-09-13T19:16:26.369Z,18.15
2022-09-13T19:18:54.055Z,17.99
2022-09-13T19:21:24.392Z,18.08
2022-09-13T19:24:00.052Z,17.90
2022-09-13T19:26:30.887Z,17.77
2022-09-13T19:29:04.424Z,17.77
2022-09-13T19:31:33.178Z,17.88
2022-09-13T19:34:02.242Z,17.82
2022-09-13T19:36:34.269Z,17.73
2022-09-13T19:39:02.530Z,17.60
2022-09-13T19:41:30.836Z,17.65
2022-09-13T19:44:01.625Z,17.56
2022-09-13T19:46:31.916Z,17.57
2022-09-13T19:49:00.648Z,17.41
2022-09-13T19:51:29.711Z,17.52
2022-09-13T19:53:58.591Z,17.49
2022-09-13T19:56:28.200Z,17.50
2022-09-13T19:58:55.996Z,17.34
2022-09-13T20:01:26.498Z,17.15
2022-09-13T20:03:55.614Z,16.99
2022-09-13T20:06:24.197Z,17.00
2022-09-13T20:08:52.186Z,17.15
2022-09-13T20:11:20.841Z,17.05
2022-09-13T20:13:49.080Z,17.11
2022-09-13T20:16:19.298Z,16.87
2022-09-13T20:18:48.706Z,16.83
2022-09-13T20:21:17.525Z,16.94
2022-09-13T20:23:45.879Z,16.79
2022-09-13T20:26:15.348Z,16.72
2022-09-13T20:28:43.073Z,16.41
2022-09-13T20:31:12.842Z,16.56
2022-09-13T20:33:40.915Z,16.40
2022-09-13T20:36:11.852Z,16.53
2022-09-13T20:38:39.982Z,16.52
2022-09-13T20:41:08.559Z,16.58
2022-09-13T20:43:37.478Z,16.44
2022-09-13T20:46:06.422Z,16.39
2022-09-13T20:48:34.668Z,16.43
2022-09-13T20:51:05.156Z,16.45
2022-09-13T20:53:34.291Z,16.34
2022-09-13T20:56:03.680Z,16.23
2022-09-13T20:58:31.462Z,16.23
2022-09-13T21:01:03.958Z,16.21
2022-09-13T21:03:31.850Z,16.12
2022-09-13T21:06:01.459Z,16.19
2022-09-13T21:08:41.115Z,16.21
2022-09-13T21:11:12.888Z,16.24
2022-09-13T21:13:43.283Z,16.26
2022-09-13T21:16:12.573Z,16.21
2022-09-13T21:18:41.057Z,16.15
2022-09-13T21:21:09.605Z,16.10
2022-09-13T21:23:40.334Z,16.09
2022-09-13T21:26:12.506Z,16.09
2022-09-13T21:28:42.656Z,16.00
2022-09-13T21:31:13.166Z,16.02
2022-09-13T21:33:42.157Z,16.10
2022-09-13T21:36:11.637Z,16.25
2022-09-13T21:38:39.751Z,16.27
2022-09-13T21:41:11.326Z,16.27
2022-09-13T21:43:40.549Z,16.29
2022-09-13T21:46:13.085Z,16.24
2022-09-13T21:48:40.776Z,16.35
2022-09-13T21:51:11.187Z,16.41
2022-09-13T21:53:40.101Z,16.44
2022-09-13T21:56:08.981Z,16.47
2022-09-13T21:58:37.951Z,16.41
2022-09-13T22:01:09.805Z,16.42
2022-09-13T22:03:39.082Z,16.42
2022-09-13T22:06:07.806Z,16.40
2022-09-13T22:08:38.482Z,16.31
2022-09-13T22:11:07.646Z,16.28
2022-09-13T22:13:35.472Z,16.25
2022-09-13T22:16:10.035Z,16.19
2022-09-13T22:18:37.732Z,16.10
2022-09-13T22:21:07.052Z,16.12
2022-09-13T22:23:35.648Z,16.14
2022-09-13T22:26:05.932Z,16.12
2022-09-13T22:28:33.642Z,16.14
2022-09-13T22:31:06.578Z,16.14
2022-09-13T22:33:36.200Z,16.14
2022-09-13T22:36:05.684Z,16.18
2022-09-13T22:38:33.897Z,16.23
2022-09-13T22:41:03.548Z,16.24
2022-09-13T22:43:31.260Z,16.26
2022-09-13T22:46:03.533Z,16.18
2022-09-13T22:48:31.428Z,16.26
2022-09-13T22:51:00.551Z,16.27
2022-09-13T22:53:28.623Z,16.21
2022-09-13T22:55:56.223Z,16.21
2022-09-13T22:58:24.554Z,16.11
2022-09-13T23:00:52.190Z,16.12
2022-09-13T23:03:19.759Z,16.14
2022-09-13T23:05:56.008Z,16.13
2022-09-13T23:08:25.312Z,16.19
2022-09-13T23:10:53.176Z,16.15
2022-09-13T23:13:20.772Z,16.05
2022-09-13T23:15:48.483Z,16.11
2022-09-13T23:18:16.006Z,16.05
2022-09-13T23:20:43.665Z,16.12
2022-09-13T23:23:12.097Z,16.16
2022-09-13T23:25:40.958Z,16.15
2022-09-13T23:28:09.018Z,16.10
2022-09-13T23:30:36.559Z,16.00
2022-09-13T23:33:04.136Z,15.95
2022-09-13T23:35:31.689Z,15.90
2022-09-13T23:37:59.471Z,15.93
2022-09-13T23:40:27.048Z,15.85
2022-09-13T23:42:56.063Z,15.80
2022-09-13T23:45:23.757Z,15.77
2022-09-13T23:47:51.414Z,15.75
2022-09-13T23:50:18.986Z,15.79
2022-09-13T23:52:46.917Z,15.73
2022-09-13T23:55:14.632Z,15.54
2022-09-13T23:57:42.205Z,15.49
